createdAt,value
2022-08-04T00:00:58.485Z,3.2
2022-08-04T00:03:01.737Z,2.6
2022-08-04T00:05:05.503Z,3
2022-08-04T00:17:48.182Z,3.1
2022-08-04T00:19:51.433Z,3.1
2022-08-04T00:21:54.744Z,3.7
2022-08-04T00:24:10.623Z,3.6
2022-08-04T00:26:04.205Z,3.1
2022-08-04T00:28:07.428Z,3.1
2022-08-04T00:34:17.068Z,3
2022-08-04T00:44:36.757Z,3.4
2022-08-04T01:01:06.080Z,2.5
2022-08-04T01:03:09.376Z,2.7
2022-08-04T01:11:25.779Z,2.9
2022-08-04T01:12:28.891Z,3.1
2022-08-04T01:14:32.216Z,3.2
2022-08-04T01:16:35.505Z,3.1
2022-08-04T01:18:38.786Z,2.8
2022-08-04T01:20:45.028Z,2.8
2022-08-04T01:22:48.366Z,3
2022-08-04T01:24:51.587Z,3.5
2022-08-04T01:26:58.385Z,3.7
2022-08-04T01:28:58.055Z,3.1
2022-08-04T01:31:01.369Z,4
2022-08-04T01:33:04.709Z,4.6
2022-08-04T01:37:14.431Z,3.1
2022-08-04T01:39:17.895Z,3.2
2022-08-04T01:43:24.357Z,3.5
2022-08-04T01:45:27.571Z,2.8
2022-08-04T01:49:40.161Z,3.7
2022-08-04T01:51:40.718Z,2.8
2022-08-04T01:53:44.089Z,3.5
2022-08-04T01:55:54.390Z,3.2
2022-08-04T01:57:50.786Z,3.5
2022-08-04T01:59:54.122Z,2.9
2022-08-04T02:01:57.540Z,3.6
2022-08-04T02:04:20.674Z,4.4
2022-08-04T02:06:07.183Z,4.5
2022-08-04T02:11:17.193Z,4.7
2022-08-04T02:13:20.530Z,4.2
2022-08-04T02:15:23.912Z,4.2
2022-08-04T02:21:42.277Z,3.5
2022-08-04T02:23:40.328Z,3.1
2022-08-04T02:25:43.698Z,4.3
2022-08-04T02:28:00.147Z,3.9
2022-08-04T02:29:50.384Z,3.7
2022-08-04T02:31:56.829Z,4.3
2022-08-04T02:34:00.132Z,3.6
2022-08-04T02:38:06.871Z,5.3
2022-08-04T02:40:10.247Z,4.8
2022-08-04T02:42:13.638Z,4.7
2022-08-04T02:44:16.891Z,4.7
2022-08-04T02:46:23.217Z,5.8
2022-08-04T02:48:31.182Z,7.2
2022-08-04T02:50:29.950Z,5.8
2022-08-04T02:52:33.444Z,5.7
2022-08-04T02:54:36.599Z,5.8
2022-08-04T02:56:39.984Z,4.5
2022-08-04T02:58:43.365Z,4.9
2022-08-04T03:00:49.985Z,4.4
2022-08-04T03:02:53.256Z,4.9
2022-08-04T03:04:56.919Z,4.9
2022-08-04T03:06:00.978Z,4.8
2022-08-04T03:08:03.227Z,5.8
2022-08-04T03:10:06.630Z,6.8
2022-08-04T03:12:09.984Z,5.7
2022-08-04T03:14:16.489Z,6.4
2022-08-04T03:16:19.866Z,6.5
2022-08-04T03:18:23.258Z,6.4
2022-08-04T03:20:26.640Z,6.5
2022-08-04T03:22:29.993Z,6.3
2022-08-04T03:24:33.390Z,6.5
2022-08-04T03:26:36.841Z,6.5
2022-08-04T03:28:43.320Z,7.6
2022-08-04T03:30:46.691Z,7.3
2022-08-04T03:32:50.133Z,7.2
2022-08-04T03:34:53.458Z,7.7
2022-08-04T03:36:56.861Z,6.8
2022-08-04T03:39:00.347Z,6.8
2022-08-04T03:41:03.669Z,7.4
2022-08-04T03:43:10.155Z,6.7
2022-08-04T03:45:23.117Z,6.5
2022-08-04T03:47:16.930Z,6.8
2022-08-04T03:49:20.313Z,7.2
2022-08-04T03:51:35.177Z,6
2022-08-04T03:53:26.988Z,6.5
2022-08-04T03:55:30.471Z,6.8
2022-08-04T03:57:36.934Z,7.3
2022-08-04T03:59:40.308Z,6.6
2022-08-04T04:02:01.454Z,6.7
2022-08-04T04:04:01.636Z,7.6
2022-08-04T04:06:05.032Z,6.9
2022-08-04T04:08:12.500Z,7.5
2022-08-04T04:10:14.975Z,6.5
2022-08-04T04:12:18.349Z,6.9
2022-08-04T04:14:21.776Z,6.1
2022-08-04T04:16:25.158Z,6.8
2022-08-04T04:18:28.569Z,6.5
2022-08-04T04:20:31.972Z,5.7
2022-08-04T04:22:38.363Z,6.7
2022-08-04T04:24:41.872Z,5.5
2022-08-04T04:26:45.245Z,6.2
2022-08-04T04:28:50.183Z,4.6
2022-08-04T04:30:53.545Z,4.5
2022-08-04T04:32:56.973Z,4.5
2022-08-04T04:39:10.344Z,5.6
2022-08-04T04:41:13.680Z,4.1
2022-08-04T04:43:17.080Z,4.8
2022-08-04T04:45:20.489Z,4.3
2022-08-04T04:48:03.447Z,4.7
2022-08-04T04:49:27.270Z,4
2022-08-04T04:51:30.695Z,5
2022-08-04T04:53:37.229Z,5
2022-08-04T04:57:54.643Z,3.7
2022-08-04T04:58:47.286Z,4.5
2022-08-04T05:00:50.687Z,4.2
2022-08-04T05:04:57.546Z,4.4
2022-08-04T05:07:04.004Z,3.5
2022-08-04T05:09:07.405Z,3.3
2022-08-04T05:11:10.773Z,3.5
2022-08-04T05:15:17.572Z,3
2022-08-04T05:17:21.265Z,3.6
2022-08-04T05:19:24.339Z,3.7
2022-08-04T05:21:30.868Z,4.1
2022-08-04T05:25:37.639Z,3.1
2022-08-04T05:29:44.388Z,3.1
2022-08-04T05:31:47.737Z,3.1
2022-08-04T05:33:51.024Z,3.7
2022-08-04T05:36:20.823Z,4.1
2022-08-04T05:42:07.531Z,3.7
2022-08-04T05:44:10.769Z,3.4
2022-08-04T05:48:17.347Z,2.9
2022-08-04T05:52:27.067Z,3.2
2022-08-04T05:54:30.310Z,3.3
2022-08-04T05:55:58.382Z,2.8
2022-08-04T05:57:36.650Z,2.5
2022-08-04T05:59:39.862Z,3.1
2022-08-04T06:01:55.614Z,3.1
2022-08-04T06:03:49.341Z,4.2
2022-08-04T06:05:52.547Z,2.5
2022-08-04T06:08:04.644Z,3.8
2022-08-04T06:12:04.186Z,2.8
2022-08-04T06:14:05.358Z,2.4
2022-08-04T06:16:08.558Z,2.9
2022-08-04T06:19:57.867Z,2.8
2022-08-04T06:20:23.018Z,2.7
2022-08-04T06:24:24.324Z,2.8
2022-08-04T06:26:27.472Z,2.8
2022-08-04T06:28:30.660Z,2.7
2022-08-04T06:30:33.812Z,2.8
2022-08-04T06:32:41.842Z,2.3
2022-08-04T06:34:43.132Z,2.6
2022-08-04T06:36:46.265Z,2.2
2022-08-04T06:38:58.264Z,2.7
2022-08-04T06:40:52.546Z,3
2022-08-04T06:42:55.641Z,2.6
2022-08-04T06:47:04.976Z,3.3
2022-08-04T06:49:08.076Z,3.5
2022-08-04T06:51:30.691Z,3.2
2022-08-04T06:52:14.210Z,2.5
2022-08-04T06:54:17.333Z,3.1
2022-08-04T06:56:20.417Z,2.4
2022-08-04T06:58:23.499Z,2.8
2022-08-04T07:00:29.616Z,2.5
2022-08-04T07:02:32.674Z,2.6
2022-08-04T07:04:35.741Z,2.4
2022-08-04T07:06:38.803Z,3.7
2022-08-04T07:08:41.891Z,2.7
2022-08-04T07:10:44.918Z,2.7
2022-08-04T07:12:47.974Z,2.8
2022-08-04T07:14:54.033Z,2.4
2022-08-04T07:16:57.054Z,1.9
2022-08-04T07:19:10.517Z,2.2
2022-08-04T07:21:03.104Z,2.8
2022-08-04T07:23:06.135Z,1.8
2022-08-04T07:25:12.696Z,2
2022-08-04T07:27:12.145Z,2.8
2022-08-04T07:29:18.252Z,2.5
2022-08-04T07:31:33.172Z,2.2
2022-08-04T07:36:06.017Z,2.8
2022-08-04T07:39:33.256Z,2.3
2022-08-04T07:41:36.496Z,2
2022-08-04T07:45:45.175Z,1.9
2022-08-04T07:48:04.997Z,2.6
2022-08-04T07:58:29.821Z,2.7
2022-08-04T08:06:42.660Z,2.1
2022-08-04T08:10:46.812Z,1.8
2022-08-04T08:12:51.975Z,3
2022-08-04T08:18:58.393Z,1.2
2022-08-04T08:27:13.021Z,1.9
2022-08-04T08:31:18.699Z,1.5
2022-08-04T08:33:21.517Z,2.2
2022-08-04T08:35:24.388Z,1.6
2022-08-04T08:37:27.230Z,2.8
2022-08-04T08:39:33.181Z,1.6
2022-08-04T08:41:35.951Z,2.1
2022-08-04T08:44:06.441Z,2.2
2022-08-04T08:48:47.385Z,2.1
2022-08-04T08:53:01.409Z,1.8
2022-08-04T08:54:59.122Z,2.2
2022-08-04T09:01:07.637Z,2.3
2022-08-04T09:03:10.364Z,2.1
2022-08-04T09:07:19.247Z,1.8
2022-08-04T09:09:21.916Z,1.6
2022-08-04T09:11:24.728Z,2.2
2022-08-04T09:13:27.567Z,2.3
2022-08-04T09:17:33.204Z,2.2
2022-08-04T09:19:38.545Z,1.9
2022-08-04T09:21:41.968Z,1.8
2022-08-04T09:23:44.788Z,1.6
2022-08-04T09:25:47.642Z,2
2022-08-04T09:27:50.476Z,2.8
2022-08-04T09:29:53.330Z,2
2022-08-04T09:33:59.037Z,1.8
2022-08-04T09:36:04.947Z,2.1
2022-08-04T09:38:07.804Z,2.5
2022-08-04T09:40:14.590Z,2.5
2022-08-04T09:41:20.768Z,2.2
2022-08-04T09:43:16.429Z,2.1
2022-08-04T09:45:26.025Z,2.5
2022-08-04T09:47:22.121Z,2.3
2022-08-04T09:49:28.033Z,2.8
2022-08-04T09:51:59.044Z,2.4
2022-08-04T09:53:33.666Z,2
2022-08-04T09:55:36.516Z,2.2
2022-08-04T09:57:39.325Z,1.4
2022-08-04T09:59:42.147Z,1.5
2022-08-04T10:01:44.951Z,2.3
2022-08-04T10:03:50.858Z,1.8
2022-08-04T10:05:53.656Z,1.7
2022-08-04T10:07:59.587Z,1.7
2022-08-04T10:16:07.661Z,1.1
2022-08-04T10:20:16.343Z,1.9
2022-08-04T10:26:26.200Z,1.9
2022-08-04T10:28:28.995Z,1.3
2022-08-04T10:30:31.781Z,1.7
2022-08-04T10:32:42.750Z,1.7
2022-08-04T10:34:40.426Z,1.9
2022-08-04T10:36:43.220Z,1.7
2022-08-04T10:39:49.038Z,1.7
2022-08-04T10:41:51.721Z,1.1
2022-08-04T10:43:54.516Z,1.2
2022-08-04T10:50:06.582Z,1.3
2022-08-04T10:52:09.385Z,1
2022-08-04T10:54:12.232Z,1.3
2022-08-04T10:56:15.048Z,1
2022-08-04T10:58:17.873Z,1
2022-08-04T11:00:23.816Z,1
2022-08-04T11:02:26.712Z,1.9
2022-08-04T11:04:29.492Z,1
2022-08-04T11:06:32.409Z,1.3
2022-08-04T11:08:35.282Z,1.1
2022-08-04T11:10:38.159Z,1.1
2022-08-04T11:12:41.033Z,1.2
2022-08-04T11:14:46.992Z,1.1
2022-08-04T11:16:49.893Z,1
2022-08-04T11:18:52.783Z,0.9
2022-08-04T11:20:55.721Z,1.1
2022-08-04T11:22:58.625Z,1.1
2022-08-04T11:25:01.559Z,1.1
2022-08-04T11:27:04.499Z,1.6
2022-08-04T11:29:10.487Z,1.1
2022-08-04T11:31:13.412Z,1.1
2022-08-04T11:33:16.359Z,1
2022-08-04T11:37:36.839Z,1.1
2022-08-04T11:39:39.827Z,1.3
2022-08-04T11:44:01.468Z,1
2022-08-04T11:45:51.714Z,1.1
2022-08-04T11:47:54.668Z,1.1
2022-08-04T11:49:58.248Z,1.4
2022-08-04T11:54:03.591Z,1.2
2022-08-04T11:56:11.449Z,1.7
2022-08-04T11:58:12.609Z,1
2022-08-04T12:00:15.567Z,1.1
2022-08-04T12:02:21.108Z,0.8
2022-08-04T12:04:21.553Z,1.1
2022-08-04T12:06:24.553Z,1.5
2022-08-04T12:08:27.524Z,1.1
2022-08-04T12:10:41.344Z,1.3
2022-08-04T12:12:36.554Z,1.2
2022-08-04T12:14:39.566Z,1.3
2022-08-04T12:16:42.572Z,1
2022-08-04T12:18:45.587Z,1.1
2022-08-04T12:20:48.584Z,1.2
2022-08-04T12:22:51.579Z,1.3
2022-08-04T12:24:57.643Z,1.1
2022-08-04T12:27:00.671Z,1.4
2022-08-04T12:31:00.937Z,1.2
2022-08-04T12:32:09.620Z,1.8
2022-08-04T12:34:12.580Z,1.2
2022-08-04T12:38:21.537Z,1.5
2022-08-04T12:40:29.118Z,1.3
2022-08-04T12:42:27.444Z,1
2022-08-04T12:44:36.793Z,1.3
2022-08-04T12:46:33.282Z,1.4
2022-08-04T12:48:36.186Z,1.2
2022-08-04T12:50:39.090Z,1.3
2022-08-04T12:54:47.961Z,0.9
2022-08-04T12:56:50.835Z,1.1
2022-08-04T12:58:53.748Z,1.3
2022-08-04T13:00:56.665Z,1.4
2022-08-04T13:02:59.455Z,1.1
2022-08-04T13:07:08.343Z,1.2
2022-08-04T13:09:17.542Z,0.9
2022-08-04T13:11:13.887Z,1.1
2022-08-04T13:13:16.675Z,1.2
2022-08-04T13:15:19.459Z,1
2022-08-04T13:17:22.542Z,1.2
2022-08-04T13:19:24.999Z,1.2
2022-08-04T13:24:10.605Z,0.9
2022-08-04T13:26:43.969Z,1.1
2022-08-04T13:26:44.708Z,1.1
2022-08-04T13:28:42.883Z,1
2022-08-04T13:30:24.153Z,1.1
2022-08-04T13:30:44.674Z,1.1
2022-08-04T13:32:47.397Z,0.6
2022-08-04T13:34:53.452Z,0.5
2022-08-04T13:36:55.846Z,1.2
2022-08-04T13:38:58.523Z,1.8
2022-08-04T13:41:01.214Z,1.2
2022-08-04T13:45:06.368Z,1
2022-08-04T13:47:14.152Z,0.9
2022-08-04T13:49:38.131Z,1
2022-08-04T13:51:17.210Z,1
2022-08-04T14:05:59.492Z,1.2
2022-08-04T14:07:40.311Z,1.1
2022-08-04T14:13:47.709Z,1.2
2022-08-04T14:16:02.908Z,0.9
2022-08-04T14:19:58.208Z,1.1
2022-08-04T14:23:03.429Z,0.6
2022-08-04T14:25:05.909Z,0.8
2022-08-04T14:27:08.315Z,0.8
2022-08-04T14:29:27.099Z,1
2022-08-04T14:31:16.346Z,0.6
2022-08-04T14:34:04.200Z,1.4
2022-08-04T14:35:21.223Z,0.7
2022-08-04T14:37:23.705Z,0.8
2022-08-04T14:39:26.143Z,1
2022-08-04T14:41:28.541Z,1.1
2022-08-04T14:45:36.651Z,0.7
2022-08-04T14:47:39.152Z,0.8
2022-08-04T14:49:41.646Z,0.6
2022-08-04T14:51:44.182Z,1.3
2022-08-04T14:53:46.738Z,1
2022-08-04T14:55:49.304Z,0.9
2022-08-04T14:58:34.444Z,0.6
2022-08-04T14:59:59.566Z,0.8
2022-08-04T15:02:01.617Z,1
2022-08-04T15:04:02.853Z,0.7
2022-08-04T15:12:13.682Z,0.9
2022-08-04T15:14:37.783Z,1.2
2022-08-04T15:16:22.108Z,1.1
2022-08-04T15:18:24.874Z,1
2022-08-04T15:20:48.021Z,1.2
2022-08-04T15:24:55.339Z,0.8
2022-08-04T15:26:59.429Z,1.2
2022-08-04T15:29:02.262Z,0.8
2022-08-04T15:31:05.009Z,1.3
2022-08-04T15:33:07.794Z,0.7
2022-08-04T15:35:10.600Z,0.9
2022-08-04T15:37:13.423Z,0.9
2022-08-04T15:39:16.317Z,0.6
2022-08-04T15:41:22.122Z,0.8
2022-08-04T15:43:24.972Z,0.9
2022-08-04T15:46:26.491Z,1.2
2022-08-04T15:47:30.611Z,0.7
2022-08-04T15:49:33.432Z,0.7
2022-08-04T15:51:36.285Z,0.6
2022-08-04T15:54:03.509Z,0.6
2022-08-04T15:55:45.041Z,0.8
2022-08-04T15:57:47.869Z,0.7
2022-08-04T15:59:50.726Z,0.7
2022-08-04T16:02:10.838Z,1
2022-08-04T16:03:59.458Z,1.2
2022-08-04T16:05:59.270Z,0.6
2022-08-04T16:08:02.113Z,0.6
2022-08-04T16:10:08.048Z,0.9
2022-08-04T16:12:13.659Z,0.7
2022-08-04T16:14:13.770Z,0.9
2022-08-04T16:15:16.744Z,1.3
2022-08-04T16:21:26.837Z,0.7
2022-08-04T16:29:41.460Z,1
2022-08-04T16:33:47.226Z,0.8
2022-08-04T16:35:50.126Z,1.1
2022-08-04T16:37:56.083Z,1.1
2022-08-04T16:39:58.985Z,1.2
2022-08-04T16:42:01.873Z,1.5
2022-08-04T16:46:15.826Z,0.8
2022-08-04T16:48:10.630Z,1
2022-08-04T16:52:19.525Z,1
2022-08-04T16:54:22.434Z,1
2022-08-04T16:56:25.383Z,0.9
2022-08-04T16:58:28.298Z,1.2
2022-08-04T17:00:31.356Z,1
2022-08-04T17:02:34.307Z,0.7
2022-08-04T17:04:37.132Z,1.2
2022-08-04T17:06:43.134Z,1.2
2022-08-04T17:08:46.103Z,1
2022-08-04T17:10:49.043Z,1
2022-08-04T17:11:52.034Z,1.2
2022-08-04T17:14:03.803Z,1.1
2022-08-04T17:15:57.941Z,0.8
2022-08-04T17:18:06.423Z,1.2
2022-08-04T17:20:06.931Z,1.1
2022-08-04T17:22:10.198Z,1.1
2022-08-04T17:24:17.474Z,1
2022-08-04T17:26:15.821Z,0.6
2022-08-04T17:30:21.759Z,0.6
2022-08-04T17:32:24.928Z,1.1
2022-08-04T17:34:30.737Z,1
2022-08-04T17:36:33.711Z,1.1
2022-08-04T17:38:36.690Z,0.7
2022-08-04T17:40:39.656Z,0.9
2022-08-04T17:46:48.760Z,1.3
2022-08-04T17:50:57.509Z,0.9
2022-08-04T17:53:00.511Z,1
2022-08-04T17:57:06.427Z,1.1
2022-08-04T17:59:09.393Z,0.8
2022-08-04T18:01:25.138Z,1.1
2022-08-04T18:03:22.737Z,1
2022-08-04T18:08:40.587Z,1.4
2022-08-04T18:10:35.867Z,1.7
2022-08-04T18:12:33.216Z,1.5
2022-08-04T18:14:36.162Z,1.1
2022-08-04T18:16:42.201Z,1.4
2022-08-04T18:18:49.056Z,1
2022-08-04T18:20:50.171Z,1.3
2022-08-04T18:22:51.097Z,1.1
2022-08-04T18:24:55.318Z,0.9
2022-08-04T18:26:57.055Z,1.2
2022-08-04T18:29:00.020Z,1.2
2022-08-04T18:31:06.072Z,0.8
2022-08-04T18:33:39.642Z,1.3
2022-08-04T18:35:16.206Z,0.8
2022-08-04T18:38:03.156Z,0.9
2022-08-04T18:39:18.126Z,1
2022-08-04T18:41:21.181Z,1.8
2022-08-04T18:45:34.353Z,2
2022-08-04T18:47:33.434Z,1.2
2022-08-04T18:51:01.063Z,1.5
2022-08-04T18:51:39.306Z,1.1
2022-08-04T18:53:44.574Z,1.4
2022-08-04T18:55:55.517Z,1.3
2022-08-04T18:57:59.293Z,1.3
2022-08-04T18:59:54.620Z,1.2
2022-08-04T19:02:17.243Z,0.8
2022-08-04T19:04:00.789Z,1.1
2022-08-04T19:08:34.566Z,1.4
2022-08-04T19:10:30.473Z,1
2022-08-04T19:12:36.640Z,1.5
2022-08-04T19:14:39.717Z,1.4
2022-08-04T19:16:46.094Z,1.2
2022-08-04T19:18:45.945Z,1.3
2022-08-04T19:20:49.764Z,1.5
2022-08-04T19:24:23.472Z,1.6
2022-08-04T19:24:55.359Z,1.4
2022-08-04T19:27:01.571Z,1.2
2022-08-04T19:29:04.682Z,1.3
2022-08-04T19:31:07.817Z,1
2022-08-04T19:33:11.020Z,1.3
2022-08-04T19:35:14.213Z,1.2
2022-08-04T19:39:20.497Z,1.3
2022-08-04T19:41:27.051Z,1.3
2022-08-04T19:43:29.887Z,1.3
2022-08-04T19:45:42.000Z,1.4
2022-08-04T19:50:04.109Z,1.2
2022-08-04T19:51:44.028Z,1.1
2022-08-04T19:53:45.574Z,0.9
2022-08-04T19:59:58.021Z,1.6
2022-08-04T20:03:04.265Z,1.1
2022-08-04T20:07:14.305Z,1.4
2022-08-04T20:09:25.688Z,1.4
2022-08-04T20:11:19.852Z,1.3
2022-08-04T20:15:26.138Z,2
2022-08-04T20:18:08.210Z,0.9
2022-08-04T20:19:32.436Z,1.7
2022-08-04T20:23:48.250Z,1.5
2022-08-04T20:27:59.348Z,1.6
2022-08-04T20:29:51.137Z,2
2022-08-04T20:31:54.312Z,1.7
2022-08-04T20:38:06.812Z,1.8
2022-08-04T20:44:22.130Z,1.1
2022-08-04T20:48:22.544Z,1.2
2022-08-04T20:50:30.045Z,1
2022-08-04T20:52:31.820Z,1
2022-08-04T20:54:34.966Z,1.4
2022-08-04T20:56:38.127Z,1.7
2022-08-04T20:57:49.042Z,1.6
2022-08-04T20:59:54.372Z,1.1
2022-08-04T21:01:49.027Z,1
2022-08-04T21:03:57.799Z,0.9
2022-08-04T21:05:56.879Z,1.1
2022-08-04T21:10:03.217Z,1
2022-08-04T21:12:06.486Z,1.1
2022-08-04T21:14:09.531Z,1.1
2022-08-04T21:16:12.731Z,1.1
2022-08-04T21:18:16.730Z,1
2022-08-04T21:20:27.223Z,1.1
2022-08-04T21:22:33.243Z,1.2
2022-08-04T21:24:28.445Z,1.3
2022-08-04T21:26:31.628Z,1.1
2022-08-04T21:28:34.813Z,1.3
2022-08-04T21:30:52.315Z,1.9
2022-08-04T21:34:49.217Z,1.7
2022-08-04T21:36:50.587Z,1.5
2022-08-04T21:38:53.773Z,1.6
2022-08-04T21:40:56.911Z,1.4
2022-08-04T21:43:00.139Z,1
2022-08-04T21:45:03.559Z,1.4
2022-08-04T21:47:06.492Z,1.2
2022-08-04T21:49:12.789Z,1.2
2022-08-04T21:51:58.657Z,1.2
2022-08-04T21:53:19.784Z,1.6
2022-08-04T21:54:22.333Z,1.3
2022-08-04T21:56:26.436Z,1.8
2022-08-04T21:58:32.680Z,1.7
2022-08-04T22:00:31.933Z,1.6
2022-08-04T22:02:38.163Z,1.5
2022-08-04T22:04:41.386Z,1.8
2022-08-04T22:06:51.665Z,2.1
2022-08-04T22:08:49.104Z,2.2
2022-08-04T22:10:51.092Z,1.8
2022-08-04T22:12:55.953Z,2.3
2022-08-04T22:14:59.676Z,1.6
2022-08-04T22:17:05.505Z,2
2022-08-04T22:19:10.831Z,1.4
2022-08-04T22:25:19.040Z,2
2022-08-04T22:35:44.268Z,2
2022-08-04T22:39:56.121Z,2.3
2022-08-04T22:42:04.042Z,1.8
2022-08-04T22:43:54.797Z,2.3
2022-08-04T22:45:58.406Z,2
2022-08-04T22:48:01.769Z,2.6
2022-08-04T22:52:32.151Z,2.4
2022-08-04T22:54:32.603Z,2.3
2022-08-04T22:56:38.307Z,2
2022-08-04T22:58:45.130Z,3.1
2022-08-04T23:00:45.946Z,2.6
2022-08-04T23:02:49.241Z,2.3
2022-08-04T23:04:54.239Z,2.9
2022-08-04T23:06:56.005Z,2.7
2022-08-04T23:13:09.234Z,3.1
2022-08-04T23:17:16.173Z,2.7
2022-08-04T23:19:19.416Z,3.2
2022-08-04T23:23:26.163Z,3
2022-08-04T23:25:33.269Z,3.7
2022-08-04T23:27:40.292Z,3.4
2022-08-04T23:29:52.557Z,3.7
2022-08-04T23:33:50.743Z,3
2022-08-04T23:35:49.631Z,3.5
2022-08-04T23:40:14.349Z,3.6
2022-08-04T23:42:02.930Z,3.7
2022-08-04T23:44:06.294Z,4
2022-08-04T23:46:09.662Z,3.4
2022-08-04T23:49:16.914Z,3.4
2022-08-04T23:59:52.406Z,4.3
